createdAt,value
2019-01-28T00:01:09.654Z,1.20
2019-01-28T00:03:39.096Z,1.10
2019-01-28T00:06:10.853Z,1.10
2019-01-28T00:08:40.970Z,1.10
2019-01-28T00:11:11.126Z,1.10
2019-01-28T00:13:41.785Z,1.10
2019-01-28T00:16:11.089Z,1.10
2019-01-28T00:18:40.259Z,1.10
2019-01-28T00:21:10.159Z,1.10
2019-01-28T00:23:39.343Z,1.10
2019-01-28T00:26:09.510Z,1.10
2019-01-28T00:28:38.972Z,1.10
2019-01-28T00:31:10.522Z,1.20
2019-01-28T00:33:39.606Z,1.20
2019-01-28T00:36:08.819Z,1.20
2019-01-28T00:38:39.557Z,1.20
2019-01-28T00:41:08.597Z,1.20
2019-01-28T00:43:37.667Z,1.20
2019-01-28T00:46:07.094Z,1.20
2019-01-28T00:48:36.337Z,1.20
2019-01-28T00:51:05.490Z,1.10
2019-01-28T00:53:34.722Z,1.10
2019-01-28T00:56:04.181Z,1.10
2019-01-28T00:58:33.269Z,1.10
2019-01-28T01:01:02.377Z,1.00
2019-01-28T01:03:31.700Z,1.00
2019-01-28T01:06:03.548Z,1.00
2019-01-28T01:08:32.977Z,1.00
2019-01-28T01:11:02.243Z,1.00
2019-01-28T01:13:31.598Z,0.90
2019-01-28T01:16:00.724Z,1.00
2019-01-28T01:18:30.391Z,1.00
2019-01-28T01:21:01.051Z,1.00
2019-01-28T01:23:31.453Z,1.00
2019-01-28T01:26:00.865Z,1.00
2019-01-28T01:28:29.803Z,1.10
2019-01-28T01:30:58.955Z,1.10
2019-01-28T01:33:29.867Z,1.10
2019-01-28T01:35:59.057Z,1.10
2019-01-28T01:38:28.429Z,1.10
2019-01-28T01:40:57.970Z,1.10
2019-01-28T01:43:29.521Z,1.10
2019-01-28T01:45:58.830Z,1.00
2019-01-28T01:48:28.209Z,0.90
2019-01-28T01:50:57.670Z,0.80
2019-01-28T01:53:26.579Z,0.60
2019-01-28T01:55:55.504Z,0.50
2019-01-28T01:58:24.818Z,0.50
2019-01-28T02:00:53.792Z,0.40
2019-01-28T02:03:23.142Z,0.40
2019-01-28T02:05:52.897Z,0.40
2019-01-28T02:08:22.073Z,0.30
2019-01-28T02:10:51.723Z,0.40
2019-01-28T02:13:21.414Z,0.40
2019-01-28T02:15:50.573Z,0.40
2019-01-28T02:18:20.402Z,0.40
2019-01-28T02:20:49.370Z,0.40
2019-01-28T02:23:18.625Z,0.40
2019-01-28T02:25:47.750Z,0.30
2019-01-28T02:28:18.585Z,0.20
2019-01-28T02:30:49.349Z,0.10
2019-01-28T02:33:19.058Z,0.10
2019-01-28T02:35:48.030Z,0.20
2019-01-28T02:38:17.074Z,0.30
2019-01-28T02:40:46.353Z,0.40
2019-01-28T02:43:15.577Z,0.40
2019-01-28T02:45:44.857Z,0.30
2019-01-28T02:48:13.943Z,0.20
2019-01-28T02:50:43.302Z,0.10
2019-01-28T02:53:12.815Z,-0.10
2019-01-28T02:55:43.226Z,-0.20
2019-01-28T02:58:14.137Z,-0.30
2019-01-28T03:00:43.165Z,-0.40
2019-01-28T03:03:12.561Z,-0.50
2019-01-28T03:05:42.189Z,-0.60
2019-01-28T03:08:11.234Z,-0.70
2019-01-28T03:10:40.697Z,-0.70
2019-01-28T03:13:09.770Z,-0.70
2019-01-28T03:15:39.663Z,-0.80
2019-01-28T03:18:09.213Z,-0.80
2019-01-28T03:20:38.378Z,-0.70
2019-01-28T03:23:09.293Z,-0.70
2019-01-28T03:25:38.865Z,-0.70
2019-01-28T03:28:08.230Z,-0.70
2019-01-28T03:30:38.675Z,-0.70
2019-01-28T03:33:08.216Z,-0.60
2019-01-28T03:35:37.235Z,-0.50
2019-01-28T03:38:06.501Z,-0.50
2019-01-28T03:40:35.827Z,-0.50
2019-01-28T03:43:07.181Z,-0.40
2019-01-28T03:45:36.717Z,-0.40
2019-01-28T03:48:05.878Z,-0.40
2019-01-28T03:50:35.185Z,-0.40
2019-01-28T03:53:04.605Z,-0.40
2019-01-28T03:55:34.957Z,-0.40
2019-01-28T03:58:04.616Z,-0.40
2019-01-28T04:00:33.889Z,-0.40
2019-01-28T04:03:03.376Z,-0.30
2019-01-28T04:05:34.799Z,-0.20
2019-01-28T04:08:05.331Z,-0.20
2019-01-28T04:10:35.820Z,-0.20
2019-01-28T04:13:05.542Z,-0.20
2019-01-28T04:15:34.624Z,-0.10
2019-01-28T04:18:04.045Z,0.00
2019-01-28T04:20:33.425Z,0.10
2019-01-28T04:23:02.903Z,0.10
2019-01-28T04:25:32.446Z,0.20
2019-01-28T04:28:01.383Z,0.20
2019-01-28T04:30:30.839Z,0.20
2019-01-28T04:32:59.897Z,0.30
2019-01-28T04:35:29.081Z,0.20
2019-01-28T04:37:58.645Z,0.30
2019-01-28T04:40:27.797Z,0.40
2019-01-28T04:42:56.795Z,0.40
2019-01-28T04:45:25.995Z,0.50
2019-01-28T04:47:55.118Z,0.60
2019-01-28T04:50:27.053Z,0.60
2019-01-28T04:52:56.659Z,0.70
2019-01-28T04:55:25.654Z,0.60
2019-01-28T04:57:54.783Z,0.60
2019-01-28T05:00:25.373Z,0.70
2019-01-28T05:02:54.705Z,0.60
2019-01-28T05:05:24.230Z,0.60
2019-01-28T05:07:53.345Z,0.50
2019-01-28T05:10:22.970Z,0.50
2019-01-28T05:12:52.021Z,0.50
2019-01-28T05:15:21.036Z,0.50
2019-01-28T05:17:50.068Z,0.50
2019-01-28T05:20:20.572Z,0.50
2019-01-28T05:22:50.116Z,0.60
2019-01-28T05:25:19.770Z,0.60
2019-01-28T05:27:48.953Z,0.50
2019-01-28T05:30:22.585Z,0.60
2019-01-28T05:32:51.782Z,0.60
2019-01-28T05:35:21.529Z,0.50
2019-01-28T05:37:50.822Z,0.50
2019-01-28T05:40:21.504Z,0.60
2019-01-28T05:42:50.541Z,0.60
2019-01-28T05:45:20.369Z,0.60
2019-01-28T05:47:49.669Z,0.70
2019-01-28T05:50:18.885Z,0.70
2019-01-28T05:52:49.547Z,0.80
2019-01-28T05:55:19.424Z,0.80
2019-01-28T05:57:49.082Z,0.80
2019-01-28T06:00:26.620Z,0.80
2019-01-28T06:02:56.273Z,0.80
2019-01-28T06:05:26.188Z,0.80
2019-01-28T06:07:55.857Z,0.70
2019-01-28T06:10:27.158Z,0.70
2019-01-28T06:12:55.930Z,0.70
2019-01-28T06:15:25.443Z,0.70
2019-01-28T06:17:54.874Z,0.70
2019-01-28T06:20:24.590Z,0.70
2019-01-28T06:22:55.296Z,0.70
2019-01-28T06:25:24.971Z,0.70
2019-01-28T06:27:54.458Z,0.70
2019-01-28T06:30:28.830Z,0.70
2019-01-28T06:32:57.866Z,0.70
2019-01-28T06:35:28.044Z,0.70
2019-01-28T06:37:57.166Z,0.70
2019-01-28T06:40:28.802Z,0.70
2019-01-28T06:42:58.249Z,0.70
2019-01-28T06:45:27.362Z,0.70
2019-01-28T06:47:56.438Z,0.70
2019-01-28T06:50:25.547Z,0.70
2019-01-28T06:52:55.761Z,0.70
2019-01-28T06:55:25.062Z,0.80
2019-01-28T06:57:54.134Z,0.70
2019-01-28T07:00:26.146Z,0.70
2019-01-28T07:02:55.274Z,0.70
2019-01-28T07:05:24.850Z,0.70
2019-01-28T07:07:54.158Z,0.70
2019-01-28T07:10:23.243Z,0.70
2019-01-28T07:12:52.449Z,0.70
2019-01-28T07:15:22.256Z,0.70
2019-01-28T07:17:55.142Z,0.70
2019-01-28T07:20:24.567Z,0.70
2019-01-28T07:22:53.751Z,0.70
2019-01-28T07:25:22.987Z,0.70
2019-01-28T07:27:52.037Z,0.70
2019-01-28T07:30:29.915Z,0.80
2019-01-28T07:32:58.941Z,0.80
2019-01-28T07:35:28.261Z,0.80
2019-01-28T07:37:57.841Z,0.80
2019-01-28T07:40:27.037Z,0.90
2019-01-28T07:42:56.210Z,0.80
2019-01-28T07:45:27.718Z,0.80
2019-01-28T07:48:02.645Z,0.90
2019-01-28T07:50:27.631Z,0.90
2019-01-28T07:52:56.999Z,0.90
2019-01-28T07:55:26.282Z,1.00
2019-01-28T07:57:55.494Z,1.10
2019-01-28T08:00:26.518Z,1.10
2019-01-28T08:02:55.668Z,1.10
2019-01-28T08:05:24.829Z,1.10
2019-01-28T08:07:54.180Z,1.10
2019-01-28T08:10:23.392Z,1.10
2019-01-28T08:12:52.776Z,1.10
2019-01-28T08:15:23.121Z,1.10
2019-01-28T08:17:52.219Z,1.10
2019-01-28T08:20:21.556Z,1.20
2019-01-28T08:22:51.499Z,1.20
2019-01-28T08:25:20.864Z,1.20
2019-01-28T08:27:50.216Z,1.20
2019-01-28T08:30:21.874Z,1.30
2019-01-28T08:32:51.092Z,1.40
2019-01-28T08:35:20.381Z,1.50
2019-01-28T08:37:49.557Z,1.50
2019-01-28T08:40:19.324Z,1.50
2019-01-28T08:42:48.545Z,1.60
2019-01-28T08:45:17.850Z,1.70
2019-01-28T08:47:46.827Z,1.70
2019-01-28T08:50:18.638Z,1.70
2019-01-28T08:52:47.852Z,1.80
2019-01-28T08:55:18.691Z,1.90
2019-01-28T08:57:47.882Z,2.10
2019-01-28T09:00:22.213Z,2.20
2019-01-28T09:02:51.295Z,2.20
2019-01-28T09:05:22.396Z,2.30
2019-01-28T09:07:51.880Z,2.40
2019-01-28T09:10:22.500Z,2.50
2019-01-28T09:12:51.723Z,2.60
2019-01-28T09:15:21.099Z,2.70
2019-01-28T09:17:50.701Z,2.70
2019-01-28T09:20:21.067Z,2.60
2019-01-28T09:22:50.709Z,2.50
2019-01-28T09:25:20.282Z,2.40
2019-01-28T09:27:49.285Z,2.30
2019-01-28T09:30:21.681Z,2.30
2019-01-28T09:32:50.649Z,2.40
2019-01-28T09:35:19.664Z,2.30
2019-01-28T09:37:49.207Z,2.40
2019-01-28T09:40:19.890Z,2.40
2019-01-28T09:42:49.105Z,2.50
2019-01-28T09:45:20.879Z,2.50
2019-01-28T09:47:50.227Z,2.50
2019-01-28T09:50:20.420Z,2.70
2019-01-28T09:52:50.736Z,2.80
2019-01-28T09:55:19.818Z,2.90
2019-01-28T09:57:50.597Z,3.20
2019-01-28T10:00:26.483Z,3.30
2019-01-28T10:02:55.994Z,3.30
2019-01-28T10:05:25.306Z,3.40
2019-01-28T10:07:54.450Z,3.30
2019-01-28T10:10:23.805Z,3.30
2019-01-28T10:12:52.824Z,3.20
2019-01-28T10:15:22.243Z,3.10
2019-01-28T10:17:51.335Z,3.00
2019-01-28T10:20:23.029Z,3.00
2019-01-28T10:22:52.397Z,2.90
2019-01-28T10:25:21.501Z,3.00
2019-01-28T10:27:50.722Z,2.90
2019-01-28T10:30:23.253Z,2.80
2019-01-28T10:32:52.511Z,2.80
2019-01-28T10:35:21.773Z,2.70
2019-01-28T10:37:51.562Z,2.70
2019-01-28T10:40:23.834Z,2.60
2019-01-28T10:42:53.245Z,2.60
2019-01-28T10:45:22.635Z,2.60
2019-01-28T10:47:52.021Z,2.50
2019-01-28T10:50:21.525Z,2.50
2019-01-28T10:52:50.880Z,2.60
2019-01-28T10:55:20.989Z,2.60
2019-01-28T10:57:50.235Z,2.70
2019-01-28T11:00:22.965Z,2.80
2019-01-28T11:02:52.385Z,2.80
2019-01-28T11:05:24.339Z,2.80
2019-01-28T11:07:53.329Z,2.60
2019-01-28T11:10:22.796Z,2.60
2019-01-28T11:12:52.002Z,2.60
2019-01-28T11:15:23.277Z,2.70
2019-01-28T11:17:53.033Z,2.70
2019-01-28T11:20:22.337Z,2.90
2019-01-28T11:22:52.251Z,2.90
2019-01-28T11:25:26.836Z,2.90
2019-01-28T11:27:56.610Z,2.90
2019-01-28T11:30:32.956Z,2.90
2019-01-28T11:33:02.209Z,2.90
2019-01-28T11:35:31.326Z,2.80
2019-01-28T11:38:01.336Z,2.90
2019-01-28T11:40:30.485Z,3.00
2019-01-28T11:42:59.702Z,3.10
2019-01-28T11:45:31.511Z,3.30
2019-01-28T11:48:00.712Z,3.20
2019-01-28T11:50:29.750Z,3.20
2019-01-28T11:52:58.976Z,3.20
2019-01-28T11:55:27.971Z,3.20
2019-01-28T11:57:56.980Z,3.20
2019-01-28T12:00:38.447Z,3.10
2019-01-28T12:03:07.567Z,3.00
2019-01-28T12:05:37.003Z,3.00
2019-01-28T12:08:06.762Z,3.10
2019-01-28T12:10:35.982Z,3.10
2019-01-28T12:13:06.203Z,3.20
2019-01-28T12:15:35.249Z,3.20
2019-01-28T12:18:06.135Z,3.20
2019-01-28T12:20:35.495Z,3.20
2019-01-28T12:23:04.925Z,3.10
2019-01-28T12:25:34.216Z,3.10
2019-01-28T12:28:03.555Z,3.30
2019-01-28T12:30:34.090Z,3.30
2019-01-28T12:33:03.001Z,3.20
2019-01-28T12:35:33.274Z,3.10
2019-01-28T12:38:02.375Z,3.30
2019-01-28T12:40:31.705Z,3.30
2019-01-28T12:43:00.870Z,3.40
2019-01-28T12:45:30.242Z,3.40
2019-01-28T12:47:59.333Z,3.30
2019-01-28T12:50:28.824Z,3.20
2019-01-28T12:52:58.024Z,3.10
2019-01-28T12:55:27.353Z,3.00
2019-01-28T12:57:56.469Z,2.90
2019-01-28T13:00:31.005Z,2.90
2019-01-28T13:03:00.126Z,2.80
2019-01-28T13:05:29.697Z,2.80
2019-01-28T13:07:58.913Z,2.80
2019-01-28T13:10:28.200Z,2.90
2019-01-28T13:12:57.513Z,2.80
2019-01-28T13:15:27.820Z,2.80
2019-01-28T13:17:57.320Z,2.90
2019-01-28T13:20:26.698Z,2.80
2019-01-28T13:22:55.999Z,2.70
2019-01-28T13:25:26.324Z,2.70
2019-01-28T13:27:55.319Z,2.70
2019-01-28T13:30:26.541Z,2.70
2019-01-28T13:32:57.410Z,2.70
2019-01-28T13:35:26.510Z,2.60
2019-01-28T13:37:57.024Z,2.70
2019-01-28T13:40:26.178Z,2.80
2019-01-28T13:42:55.167Z,2.60
2019-01-28T13:45:24.741Z,2.60
2019-01-28T13:47:54.037Z,2.60
2019-01-28T13:50:23.257Z,2.60
2019-01-28T13:52:52.934Z,2.50
2019-01-28T13:55:22.468Z,2.50
2019-01-28T13:57:51.665Z,2.50
2019-01-28T14:00:23.477Z,2.40
2019-01-28T14:02:52.699Z,2.50
2019-01-28T14:05:22.734Z,2.50
2019-01-28T14:07:53.566Z,2.50
2019-01-28T14:10:22.849Z,2.60
2019-01-28T14:12:51.923Z,2.60
2019-01-28T14:15:24.809Z,2.50
2019-01-28T14:17:54.101Z,2.40
2019-01-28T14:20:23.740Z,2.40
2019-01-28T14:22:52.729Z,2.50
2019-01-28T14:25:21.867Z,2.50
2019-01-28T14:27:51.352Z,2.40
2019-01-28T14:30:34.041Z,2.50
2019-01-28T14:33:03.202Z,2.50
2019-01-28T14:35:32.514Z,2.40
2019-01-28T14:38:03.713Z,2.40
2019-01-28T14:40:32.733Z,2.40
2019-01-28T14:43:02.066Z,2.40
2019-01-28T14:45:31.129Z,2.50
2019-01-28T14:48:00.467Z,2.50
2019-01-28T14:50:31.192Z,2.50
2019-01-28T14:53:00.182Z,2.50
2019-01-28T14:55:30.129Z,2.50
2019-01-28T14:57:59.246Z,2.50
2019-01-28T15:00:30.609Z,2.40
2019-01-28T15:02:59.817Z,2.30
2019-01-28T15:05:29.223Z,2.30
2019-01-28T15:07:58.690Z,2.20
2019-01-28T15:10:28.086Z,2.20
2019-01-28T15:12:57.298Z,2.30
2019-01-28T15:15:31.576Z,2.30
2019-01-28T15:18:01.719Z,2.40
2019-01-28T15:20:31.997Z,2.40
2019-01-28T15:23:01.295Z,2.40
2019-01-28T15:25:30.731Z,2.30
2019-01-28T15:27:59.910Z,2.30
2019-01-28T15:30:30.132Z,2.30
2019-01-28T15:33:01.107Z,2.20
2019-01-28T15:35:30.389Z,2.10
2019-01-28T15:37:59.590Z,2.10
2019-01-28T15:40:32.178Z,2.10
2019-01-28T15:43:01.350Z,2.00
2019-01-28T15:45:32.919Z,2.00
2019-01-28T15:48:03.062Z,2.00
2019-01-28T15:50:32.229Z,1.80
2019-01-28T15:53:01.549Z,1.80
2019-01-28T15:55:35.992Z,1.70
2019-01-28T15:58:07.988Z,1.70
2019-01-28T16:00:39.328Z,1.60
2019-01-28T16:03:11.124Z,1.50
2019-01-28T16:05:41.309Z,1.50
2019-01-28T16:08:10.650Z,1.40
2019-01-28T16:10:40.466Z,1.40
2019-01-28T16:13:11.145Z,1.40
2019-01-28T16:15:50.097Z,1.40
2019-01-28T16:18:21.601Z,1.40
2019-01-28T16:20:52.930Z,1.40
2019-01-28T16:23:24.045Z,1.40
2019-01-28T16:25:54.350Z,1.40
2019-01-28T16:28:26.066Z,1.40
2019-01-28T16:30:57.616Z,1.30
2019-01-28T16:33:29.501Z,1.40
2019-01-28T16:36:00.979Z,1.30
2019-01-28T16:38:32.091Z,1.30
2019-01-28T16:41:04.047Z,1.30
2019-01-28T16:43:35.365Z,1.40
2019-01-28T16:46:06.897Z,1.30
2019-01-28T16:48:38.477Z,1.30
2019-01-28T16:51:09.710Z,1.30
2019-01-28T16:53:41.337Z,1.30
2019-01-28T16:56:13.299Z,1.30
2019-01-28T16:58:43.975Z,1.20
2019-01-28T17:01:14.916Z,1.30
2019-01-28T17:03:47.043Z,1.30
2019-01-28T17:06:18.886Z,1.20
2019-01-28T17:08:50.570Z,1.20
2019-01-28T17:11:22.062Z,1.20
2019-01-28T17:13:54.017Z,1.20
2019-01-28T17:16:25.554Z,1.20
2019-01-28T17:18:57.822Z,1.30
2019-01-28T17:21:29.375Z,1.20
2019-01-28T17:24:00.982Z,1.20
2019-01-28T17:26:32.271Z,1.20
2019-01-28T17:29:05.764Z,1.20
2019-01-28T17:31:37.442Z,1.20
2019-01-28T17:34:09.744Z,1.20
2019-01-28T17:36:41.581Z,1.10
2019-01-28T17:39:13.586Z,1.10
2019-01-28T17:41:47.381Z,1.10
2019-01-28T17:44:19.658Z,1.10
2019-01-28T17:46:51.681Z,1.10
2019-01-28T17:49:24.395Z,1.10
2019-01-28T17:51:56.571Z,1.10
2019-01-28T17:54:29.296Z,1.10
2019-01-28T17:57:02.853Z,1.10
2019-01-28T17:59:35.537Z,1.10
2019-01-28T18:02:08.153Z,1.10
2019-01-28T18:04:39.896Z,1.10
2019-01-28T18:07:12.438Z,1.10
2019-01-28T18:09:44.605Z,1.10
2019-01-28T18:12:17.981Z,1.10
2019-01-28T18:14:50.966Z,1.00
2019-01-28T18:17:24.397Z,1.00
2019-01-28T18:19:57.622Z,1.00
2019-01-28T18:22:41.455Z,1.00
2019-01-28T18:25:18.147Z,1.10
2019-01-28T18:27:50.789Z,1.00
2019-01-28T18:30:29.965Z,1.00
2019-01-28T18:33:01.805Z,1.10
2019-01-28T18:35:34.385Z,1.00
2019-01-28T18:38:07.650Z,1.00
2019-01-28T18:40:40.813Z,1.00
2019-01-28T18:43:13.795Z,1.00
2019-01-28T18:45:46.509Z,0.90
2019-01-28T18:48:19.077Z,0.90
2019-01-28T18:50:59.285Z,0.90
2019-01-28T18:53:26.422Z,0.90
2019-01-28T18:55:58.942Z,0.90
2019-01-28T18:58:31.320Z,0.90
2019-01-28T19:01:04.010Z,1.00
2019-01-28T19:03:37.553Z,1.00
2019-01-28T19:06:41.077Z,1.00
2019-01-28T19:09:18.531Z,1.00
2019-01-28T19:12:00.609Z,1.00
2019-01-28T19:14:59.398Z,1.00
2019-01-28T19:17:57.272Z,1.00
2019-01-28T19:20:39.048Z,1.00
2019-01-28T19:23:11.826Z,1.00
2019-01-28T19:25:46.290Z,1.00
2019-01-28T19:28:19.731Z,1.00
2019-01-28T19:30:53.723Z,1.00
2019-01-28T19:33:28.670Z,0.90
2019-01-28T19:36:02.773Z,0.90
2019-01-28T19:38:36.572Z,0.90
2019-01-28T19:41:10.154Z,0.90
2019-01-28T19:43:43.825Z,0.90
2019-01-28T19:46:17.651Z,0.90
2019-01-28T19:48:51.953Z,0.90
2019-01-28T19:51:26.929Z,0.90
2019-01-28T19:54:00.710Z,0.90
2019-01-28T19:56:34.038Z,0.90
2019-01-28T19:59:08.114Z,0.90
2019-01-28T20:01:42.010Z,0.90
2019-01-28T20:04:16.023Z,0.90
2019-01-28T20:06:50.327Z,0.90
2019-01-28T20:09:24.106Z,0.90
2019-01-28T20:11:56.556Z,0.90
2019-01-28T20:14:31.313Z,0.90
2019-01-28T20:17:04.860Z,0.90
2019-01-28T20:19:37.774Z,0.90
2019-01-28T20:22:11.315Z,0.90
2019-01-28T20:24:45.420Z,0.90
2019-01-28T20:27:18.750Z,0.90
2019-01-28T20:29:52.605Z,0.90
2019-01-28T20:32:26.813Z,0.90
2019-01-28T20:34:59.798Z,0.90
2019-01-28T20:37:32.642Z,0.90
2019-01-28T20:40:05.841Z,0.90
2019-01-28T20:42:39.693Z,0.90
2019-01-28T20:45:14.994Z,0.90
2019-01-28T20:47:47.447Z,0.90
2019-01-28T20:50:23.617Z,0.90
2019-01-28T20:52:56.006Z,0.90
2019-01-28T20:55:29.134Z,0.90
2019-01-28T20:58:01.809Z,0.90
2019-01-28T21:00:34.149Z,0.90
2019-01-28T21:03:07.174Z,0.90
2019-01-28T21:05:41.122Z,0.80
2019-01-28T21:08:14.242Z,0.90
2019-01-28T21:10:46.764Z,0.90
2019-01-28T21:13:19.481Z,0.90
2019-01-28T21:15:51.459Z,0.80
2019-01-28T21:18:23.628Z,0.80
2019-01-28T21:20:55.742Z,0.80
2019-01-28T21:23:28.197Z,0.90
2019-01-28T21:26:01.216Z,0.90
2019-01-28T21:28:33.825Z,0.90
2019-01-28T21:31:05.699Z,0.90
2019-01-28T21:33:37.987Z,0.90
2019-01-28T21:36:28.051Z,0.90
2019-01-28T21:39:00.369Z,0.90
2019-01-28T21:41:32.940Z,0.90
2019-01-28T21:44:05.020Z,0.90
2019-01-28T21:46:36.380Z,0.90
2019-01-28T21:49:07.855Z,0.90
2019-01-28T21:51:39.939Z,0.90
2019-01-28T21:54:11.175Z,0.90
2019-01-28T21:56:40.979Z,0.90
2019-01-28T21:59:11.816Z,0.90
2019-01-28T22:01:42.488Z,0.90
2019-01-28T22:04:11.788Z,0.80
2019-01-28T22:06:42.881Z,0.80
2019-01-28T22:09:12.813Z,0.70
2019-01-28T22:11:42.474Z,0.60
2019-01-28T22:14:11.666Z,0.50
2019-01-28T22:16:41.302Z,0.50
2019-01-28T22:19:10.346Z,0.40
2019-01-28T22:21:39.321Z,0.40
2019-01-28T22:24:08.396Z,0.40
2019-01-28T22:26:38.015Z,0.30
2019-01-28T22:29:08.035Z,0.30
2019-01-28T22:31:37.161Z,0.30
2019-01-28T22:34:06.239Z,0.30
2019-01-28T22:36:35.141Z,0.20
2019-01-28T22:39:06.653Z,0.20
2019-01-28T22:41:35.747Z,0.20
2019-01-28T22:44:05.381Z,0.20
2019-01-28T22:46:34.418Z,0.30
2019-01-28T22:49:03.427Z,0.30
2019-01-28T22:51:32.688Z,0.40
2019-01-28T22:54:01.786Z,0.40
2019-01-28T22:56:30.798Z,0.40
2019-01-28T22:58:59.731Z,0.40
2019-01-28T23:01:32.174Z,0.40
2019-01-28T23:04:01.954Z,0.40
2019-01-28T23:06:31.233Z,0.40
2019-01-28T23:09:00.609Z,0.30
2019-01-28T23:11:32.217Z,0.30
2019-01-28T23:14:01.341Z,0.30
2019-01-28T23:16:30.655Z,0.20
2019-01-28T23:18:59.613Z,0.20
2019-01-28T23:21:28.593Z,0.30
2019-01-28T23:23:57.577Z,0.40
2019-01-28T23:26:26.463Z,0.40
2019-01-28T23:28:55.545Z,0.40
2019-01-28T23:31:24.562Z,0.40
2019-01-28T23:33:53.758Z,0.40
2019-01-28T23:36:22.979Z,0.40
2019-01-28T23:38:51.962Z,0.50
2019-01-28T23:41:21.325Z,0.40
2019-01-28T23:43:50.662Z,0.40
2019-01-28T23:46:20.077Z,0.40
2019-01-28T23:48:49.381Z,0.40
2019-01-28T23:51:18.365Z,0.40
2019-01-28T23:53:47.439Z,0.40
2019-01-28T23:56:16.847Z,0.30
2019-01-28T23:58:46.437Z,0.30
